Anton, Texas
Current Conditions -  °F | °C
As of 11:53 PM on Wednesday 28 Jan 2015 (Local Time) from KLBB Reporting Station
Clear Clear  
Wind Chill: 42°   Ceiling: Unl
Heat Index: 46°   Visibility: 10mi
Dew Point: 34°   Wind: 7mph
Humidity: 63%   Direction: 350°N
Pressure: 30.14"   Gusts: NA
Location:  33.81°N, 102.16°W
Report Text: KLBB 290553Z 35006KT 10SM CLR 08/01 A3014 RMK AO2 SLP180 T00780011 10200 20067 402500033 53015
Loading
Personal Weather Stations






























Interactive Weather Map New forecast layout! Learn more

10-Day Weather Forecast

Advertisements
Track Severe Weather on mobile